Jamesville, North Carolina
Current Conditions -  °F | °C
As of 11:15 PM on Thursday 27 Nov 2014 (Local Time) from KOCW Reporting Station
Scattered Clouds Scattered Clouds  
Wind Chill: 32°   Ceiling: Unl
Heat Index: 39°   Visibility: 10mi
Dew Point: 29°   Wind: 9mph
Humidity: 69%   Direction: 320°NW
Pressure: 30.22"   Gusts: NA
Location:  35.81°N, 76.9°W
Report Text: KOCW 280415Z AUTO 32008KT 10SM SCT050 SCT070 04/M02 A3022 RMK AO2 T00371016
Loading
Personal Weather Stations






























Interactive Weather Map New forecast layout! Learn more

10-Day Weather Forecast

Advertisements
Track Severe Weather on mobile